Main page
METAR-TAF:

METAR-TAF

Airports :

Aérodrome de Dax - Seyresse

Dax, France

latitude: 43-41N, longitude: 001-04W, elevation: 32 m

Current weather observation

The report was made 32 minutes ago, at 06:30 UTC
Wind 2 kt from variable directions
Temperature 21°C
Humidity 88%
Pressure 1012 hPa
Visibility 10 km or more

METAR: LFBY 130630Z AUTO VRB02KT 9999 // ////// 21/19 Q1012

Time: 09:02 (07:02 UTC)


TAF: missing

Weather observations and forecasts of more than 4000 airports (METAR and TAF reports).

The available stations are represented by yellow and red dots on the map.

Hover mouse over dot to see the name of the station.

Then click to see weather observations and forecasts.

To change the map : click on the green buttons with a black cross to zoom in, on the green button with a dash to zoom out, or on the green arrows for adjacent maps.


METAR-TAF: